sensor_id;sensor_type;location;lat;lon;timestamp;P1;durP1;ratioP1;P2;durP2;ratioP2
74457;SDS011;62896;51.032;3.712;2023-09-07T00:01:55;10;;;5.5;;
74457;SDS011;62896;51.032;3.712;2023-09-07T00:05:15;10;;;5.5;;
74457;SDS011;62896;51.032;3.712;2023-09-07T00:08:35;10;;;5.5;;
74457;SDS011;62896;51.032;3.712;2023-09-07T00:11:55;10;;;5.5;;
74457;SDS011;62896;51.032;3.712;2023-09-07T00:15:15;10;;;5.5;;
74457;SDS011;62896;51.032;3.712;2023-09-07T00:18:36;10;;;5.5;;
74457;SDS011;62896;51.032;3.712;2023-09-07T00:21:55;8.6;;;6.4;;
74457;SDS011;62896;51.032;3.712;2023-09-07T00:25:15;8.6;;;6.4;;
74457;SDS011;62896;51.032;3.712;2023-09-07T00:28:35;8.6;;;6.4;;
74457;SDS011;62896;51.032;3.712;2023-09-07T00:31:55;8.6;;;6.4;;
74457;SDS011;62896;51.032;3.712;2023-09-07T00:35:15;8.6;;;6.4;;
74457;SDS011;62896;51.032;3.712;2023-09-07T00:38:35;8.6;;;6.4;;
74457;SDS011;62896;51.032;3.712;2023-09-07T00:41:55;8.6;;;6.4;;
74457;SDS011;62896;51.032;3.712;2023-09-07T00:45:15;9.1;;;7;;
74457;SDS011;62896;51.032;3.712;2023-09-07T00:48:35;9.1;;;7;;
74457;SDS011;62896;51.032;3.712;2023-09-07T00:51:55;9.1;;;7;;
74457;SDS011;62896;51.032;3.712;2023-09-07T00:55:15;9.1;;;7;;
74457;SDS011;62896;51.032;3.712;2023-09-07T00:58:35;9.1;;;7;;
74457;SDS011;62896;51.032;3.712;2023-09-07T01:01:55;9.1;;;7;;
74457;SDS011;62896;51.032;3.712;2023-09-07T01:05:15;9.1;;;7;;
74457;SDS011;62896;51.032;3.712;2023-09-07T01:08:36;9.1;;;7;;
74457;SDS011;62896;51.032;3.712;2023-09-07T01:11:55;9.2;;;7.2;;
74457;SDS011;62896;51.032;3.712;2023-09-07T01:15:15;9.2;;;7.2;;
74457;SDS011;62896;51.032;3.712;2023-09-07T01:18:35;9.2;;;7.2;;
74457;SDS011;62896;51.032;3.712;2023-09-07T01:21:55;9.2;;;7.2;;
74457;SDS011;62896;51.032;3.712;2023-09-07T01:25:15;9.2;;;7.2;;
74457;SDS011;62896;51.032;3.712;2023-09-07T01:28:35;9.2;;;7.2;;
74457;SDS011;62896;51.032;3.712;2023-09-07T01:31:55;9.2;;;7.2;;
74457;SDS011;62896;51.032;3.712;2023-09-07T01:35:15;10;;;7;;
74457;SDS011;62896;51.032;3.712;2023-09-07T01:38:35;10;;;7;;
74457;SDS011;62896;51.032;3.712;2023-09-07T01:41:55;10;;;7;;
74457;SDS011;62896;51.032;3.712;2023-09-07T01:45:15;10;;;7;;
74457;SDS011;62896;51.032;3.712;2023-09-07T01:48:35;10;;;7;;
74457;SDS011;62896;51.032;3.712;2023-09-07T01:51:55;10;;;7;;
74457;SDS011;62896;51.032;3.712;2023-09-07T01:55:15;10;;;7;;
74457;SDS011;62896;51.032;3.712;2023-09-07T01:58:35;10;;;7;;
74457;SDS011;62896;51.032;3.712;2023-09-07T02:01:55;9.1;;;7.1;;
74457;SDS011;62896;51.032;3.712;2023-09-07T02:05:15;9.1;;;7.1;;
74457;SDS011;62896;51.032;3.712;2023-09-07T02:08:35;9.1;;;7.1;;
74457;SDS011;62896;51.032;3.712;2023-09-07T02:11:55;9.1;;;7.1;;
74457;SDS011;62896;51.032;3.712;2023-09-07T02:15:15;9.1;;;7.1;;
74457;SDS011;62896;51.032;3.712;2023-09-07T02:18:35;9.1;;;7.1;;
74457;SDS011;62896;51.032;3.712;2023-09-07T02:21:55;9.1;;;7.1;;
74457;SDS011;62896;51.032;3.712;2023-09-07T02:25:15;10.5;;;7.3;;
74457;SDS011;62896;51.032;3.712;2023-09-07T02:28:35;10.5;;;7.3;;
74457;SDS011;62896;51.032;3.712;2023-09-07T02:31:55;10.5;;;7.3;;
74457;SDS011;62896;51.032;3.712;2023-09-07T02:35:15;10.5;;;7.3;;
74457;SDS011;62896;51.032;3.712;2023-09-07T02:38:35;10.5;;;7.3;;
74457;SDS011;62896;51.032;3.712;2023-09-07T02:41:55;10.5;;;7.3;;
74457;SDS011;62896;51.032;3.712;2023-09-07T02:45:15;10.5;;;7.3;;
74457;SDS011;62896;51.032;3.712;2023-09-07T02:48:35;10.5;;;7.3;;
74457;SDS011;62896;51.032;3.712;2023-09-07T02:51:55;10.4;;;7.7;;
74457;SDS011;62896;51.032;3.712;2023-09-07T02:55:15;10.4;;;7.7;;
74457;SDS011;62896;51.032;3.712;2023-09-07T02:58:35;10.4;;;7.7;;
74457;SDS011;62896;51.032;3.712;2023-09-07T03:01:55;10.4;;;7.7;;
74457;SDS011;62896;51.032;3.712;2023-09-07T03:05:15;10.4;;;7.7;;
74457;SDS011;62896;51.032;3.712;2023-09-07T03:08:35;10.4;;;7.7;;
74457;SDS011;62896;51.032;3.712;2023-09-07T03:11:55;10.4;;;7.7;;
74457;SDS011;62896;51.032;3.712;2023-09-07T03:15:15;9.6;;;7.6;;
74457;SDS011;62896;51.032;3.712;2023-09-07T03:18:35;9.6;;;7.6;;
74457;SDS011;62896;51.032;3.712;2023-09-07T03:21:55;9.6;;;7.6;;
74457;SDS011;62896;51.032;3.712;2023-09-07T03:25:15;9.6;;;7.6;;
74457;SDS011;62896;51.032;3.712;2023-09-07T03:28:35;9.6;;;7.6;;
74457;SDS011;62896;51.032;3.712;2023-09-07T03:31:55;9.6;;;7.6;;
74457;SDS011;62896;51.032;3.712;2023-09-07T03:35:15;9.6;;;7.6;;
74457;SDS011;62896;51.032;3.712;2023-09-07T03:38:35;9.6;;;7.6;;
74457;SDS011;62896;51.032;3.712;2023-09-07T03:41:55;13.8;;;7.7;;
74457;SDS011;62896;51.032;3.712;2023-09-07T03:45:15;13.8;;;7.7;;
74457;SDS011;62896;51.032;3.712;2023-09-07T03:48:35;13.8;;;7.7;;
74457;SDS011;62896;51.032;3.712;2023-09-07T03:51:55;13.8;;;7.7;;
74457;SDS011;62896;51.032;3.712;2023-09-07T03:55:15;13.8;;;7.7;;
74457;SDS011;62896;51.032;3.712;2023-09-07T03:58:35;13.8;;;7.7;;
74457;SDS011;62896;51.032;3.712;2023-09-07T04:01:55;13.8;;;7.7;;
74457;SDS011;62896;51.032;3.712;2023-09-07T04:05:15;10.2;;;7.9;;
74457;SDS011;62896;51.032;3.712;2023-09-07T04:08:35;10.2;;;7.9;;
74457;SDS011;62896;51.032;3.712;2023-09-07T04:11:55;10.2;;;7.9;;
74457;SDS011;62896;51.032;3.712;2023-09-07T04:15:15;10.2;;;7.9;;
74457;SDS011;62896;51.032;3.712;2023-09-07T04:18:35;10.2;;;7.9;;
74457;SDS011;62896;51.032;3.712;2023-09-07T04:21:56;10.2;;;7.9;;
74457;SDS011;62896;51.032;3.712;2023-09-07T04:25:15;10.2;;;7.9;;
74457;SDS011;62896;51.032;3.712;2023-09-07T04:28:35;10.2;;;7.9;;
74457;SDS011;62896;51.032;3.712;2023-09-07T04:31:55;9.9;;;7.4;;
74457;SDS011;62896;51.032;3.712;2023-09-07T04:35:15;9.9;;;7.4;;
74457;SDS011;62896;51.032;3.712;2023-09-07T04:38:35;9.9;;;7.4;;
74457;SDS011;62896;51.032;3.712;2023-09-07T04:41:55;9.9;;;7.4;;
74457;SDS011;62896;51.032;3.712;2023-09-07T04:45:15;9.9;;;7.4;;
74457;SDS011;62896;51.032;3.712;2023-09-07T04:48:35;9.9;;;7.4;;
74457;SDS011;62896;51.032;3.712;2023-09-07T04:51:56;9.9;;;7.4;;
74457;SDS011;62896;51.032;3.712;2023-09-07T04:55:15;9.4;;;7.4;;
74457;SDS011;62896;51.032;3.712;2023-09-07T04:58:35;9.4;;;7.4;;
74457;SDS011;62896;51.032;3.712;2023-09-07T05:01:58;9.4;;;7.4;;
74457;SDS011;62896;51.032;3.712;2023-09-07T05:05:15;9.4;;;7.4;;
74457;SDS011;62896;51.032;3.712;2023-09-07T05:08:35;9.4;;;7.4;;
74457;SDS011;62896;51.032;3.712;2023-09-07T05:11:55;9.4;;;7.4;;
74457;SDS011;62896;51.032;3.712;2023-09-07T05:15:15;9.4;;;7.4;;
74457;SDS011;62896;51.032;3.712;2023-09-07T05:18:35;9.4;;;7.4;;
74457;SDS011;62896;51.032;3.712;2023-09-07T05:21:55;13.5;;;8.5;;
74457;SDS011;62896;51.032;3.712;2023-09-07T05:25:15;13.5;;;8.5;;
74457;SDS011;62896;51.032;3.712;2023-09-07T05:28:35;13.5;;;8.5;;
74457;SDS011;62896;51.032;3.712;2023-09-07T05:31:55;13.5;;;8.5;;
74457;SDS011;62896;51.032;3.712;2023-09-07T05:35:15;13.5;;;8.5;;
74457;SDS011;62896;51.032;3.712;2023-09-07T05:38:35;13.5;;;8.5;;
74457;SDS011;62896;51.032;3.712;2023-09-07T05:41:55;13.5;;;8.5;;
74457;SDS011;62896;51.032;3.712;2023-09-07T05:45:15;10.9;;;8.3;;
74457;SDS011;62896;51.032;3.712;2023-09-07T05:48:35;10.9;;;8.3;;
74457;SDS011;62896;51.032;3.712;2023-09-07T05:51:55;10.9;;;8.3;;
74457;SDS011;62896;51.032;3.712;2023-09-07T05:55:15;10.9;;;8.3;;
74457;SDS011;62896;51.032;3.712;2023-09-07T05:58:35;10.9;;;8.3;;
74457;SDS011;62896;51.032;3.712;2023-09-07T06:01:55;10.9;;;8.3;;
74457;SDS011;62896;51.032;3.712;2023-09-07T06:05:15;10.9;;;8.3;;
74457;SDS011;62896;51.032;3.712;2023-09-07T06:08:35;10.9;;;8.3;;
74457;SDS011;62896;51.032;3.712;2023-09-07T06:11:56;11.8;;;8;;
74457;SDS011;62896;51.032;3.712;2023-09-07T06:15:16;11.8;;;8;;
74457;SDS011;62896;51.032;3.712;2023-09-07T06:18:35;11.8;;;8;;
74457;SDS011;62896;51.032;3.712;2023-09-07T06:21:55;11.8;;;8;;
74457;SDS011;62896;51.032;3.712;2023-09-07T06:25:15;11.8;;;8;;
74457;SDS011;62896;51.032;3.712;2023-09-07T06:28:35;11.8;;;8;;
74457;SDS011;62896;51.032;3.712;2023-09-07T06:31:55;11.8;;;8;;
74457;SDS011;62896;51.032;3.712;2023-09-07T06:35:15;10.5;;;8.2;;
74457;SDS011;62896;51.032;3.712;2023-09-07T06:38:35;10.5;;;8.2;;
74457;SDS011;62896;51.032;3.712;2023-09-07T06:41:55;10.5;;;8.2;;
74457;SDS011;62896;51.032;3.712;2023-09-07T06:45:15;10.5;;;8.2;;
74457;SDS011;62896;51.032;3.712;2023-09-07T06:48:35;10.5;;;8.2;;
74457;SDS011;62896;51.032;3.712;2023-09-07T06:51:55;10.5;;;8.2;;
74457;SDS011;62896;51.032;3.712;2023-09-07T06:55:16;10.5;;;8.2;;
74457;SDS011;62896;51.032;3.712;2023-09-07T06:58:35;10.5;;;8.2;;
74457;SDS011;62896;51.032;3.712;2023-09-07T07:01:55;14.5;;;7.9;;
74457;SDS011;62896;51.032;3.712;2023-09-07T07:05:15;14.5;;;7.9;;
74457;SDS011;62896;51.032;3.712;2023-09-07T07:08:35;14.5;;;7.9;;
74457;SDS011;62896;51.032;3.712;2023-09-07T07:11:56;14.5;;;7.9;;
74457;SDS011;62896;51.032;3.712;2023-09-07T07:15:15;14.5;;;7.9;;
74457;SDS011;62896;51.032;3.712;2023-09-07T07:18:35;14.5;;;7.9;;
74457;SDS011;62896;51.032;3.712;2023-09-07T07:21:55;14.5;;;7.9;;
74457;SDS011;62896;51.032;3.712;2023-09-07T07:25:15;15.7;;;6.4;;
74457;SDS011;62896;51.032;3.712;2023-09-07T07:28:35;15.7;;;6.4;;
74457;SDS011;62896;51.032;3.712;2023-09-07T07:31:55;15.7;;;6.4;;
74457;SDS011;62896;51.032;3.712;2023-09-07T07:35:15;15.7;;;6.4;;
74457;SDS011;62896;51.032;3.712;2023-09-07T07:38:35;15.7;;;6.4;;
74457;SDS011;62896;51.032;3.712;2023-09-07T07:41:55;15.7;;;6.4;;
74457;SDS011;62896;51.032;3.712;2023-09-07T07:45:15;15.7;;;6.4;;
74457;SDS011;62896;51.032;3.712;2023-09-07T07:48:35;15.7;;;6.4;;
74457;SDS011;62896;51.032;3.712;2023-09-07T07:51:55;7.8;;;5.4;;
74457;SDS011;62896;51.032;3.712;2023-09-07T07:55:15;7.8;;;5.4;;
74457;SDS011;62896;51.032;3.712;2023-09-07T07:58:35;7.8;;;5.4;;
74457;SDS011;62896;51.032;3.712;2023-09-07T08:01:55;7.8;;;5.4;;
74457;SDS011;62896;51.032;3.712;2023-09-07T08:05:16;7.8;;;5.4;;
74457;SDS011;62896;51.032;3.712;2023-09-07T08:08:35;7.8;;;5.4;;
74457;SDS011;62896;51.032;3.712;2023-09-07T08:11:56;7.8;;;5.4;;
74457;SDS011;62896;51.032;3.712;2023-09-07T08:15:16;8.7;;;5.3;;
74457;SDS011;62896;51.032;3.712;2023-09-07T08:18:36;8.7;;;5.3;;
74457;SDS011;62896;51.032;3.712;2023-09-07T08:21:56;8.7;;;5.3;;
74457;SDS011;62896;51.032;3.712;2023-09-07T08:25:15;8.7;;;5.3;;
74457;SDS011;62896;51.032;3.712;2023-09-07T08:28:35;8.7;;;5.3;;
74457;SDS011;62896;51.032;3.712;2023-09-07T08:31:55;8.7;;;5.3;;
74457;SDS011;62896;51.032;3.712;2023-09-07T08:35:16;8.7;;;5.3;;
74457;SDS011;62896;51.032;3.712;2023-09-07T08:38:35;8.7;;;5.3;;
74457;SDS011;62896;51.032;3.712;2023-09-07T08:41:55;6.9;;;4.6;;
74457;SDS011;62896;51.032;3.712;2023-09-07T08:45:15;6.9;;;4.6;;
74457;SDS011;62896;51.032;3.712;2023-09-07T08:48:35;6.9;;;4.6;;
74457;SDS011;62896;51.032;3.712;2023-09-07T08:51:57;6.9;;;4.6;;
74457;SDS011;62896;51.032;3.712;2023-09-07T08:55:16;6.9;;;4.6;;
74457;SDS011;62896;51.032;3.712;2023-09-07T08:58:36;6.9;;;4.6;;
74457;SDS011;62896;51.032;3.712;2023-09-07T09:01:56;6.9;;;4.6;;
74457;SDS011;62896;51.032;3.712;2023-09-07T09:05:16;6.9;;;4.4;;
74457;SDS011;62896;51.032;3.712;2023-09-07T09:08:43;6.9;;;4.4;;
74457;SDS011;62896;51.032;3.712;2023-09-07T09:12:05;6.9;;;4.4;;
74457;SDS011;62896;51.032;3.712;2023-09-07T09:15:16;6.9;;;4.4;;
74457;SDS011;62896;51.032;3.712;2023-09-07T09:18:36;6.9;;;4.4;;
74457;SDS011;62896;51.032;3.712;2023-09-07T09:21:56;6.9;;;4.4;;
74457;SDS011;62896;51.032;3.712;2023-09-07T09:25:16;6.9;;;4.4;;
74457;SDS011;62896;51.032;3.712;2023-09-07T09:28:36;6.9;;;4.4;;
74457;SDS011;62896;51.032;3.712;2023-09-07T09:31:56;4.9;;;3.6;;
74457;SDS011;62896;51.032;3.712;2023-09-07T09:35:16;4.9;;;3.6;;
74457;SDS011;62896;51.032;3.712;2023-09-07T09:38:36;4.9;;;3.6;;
74457;SDS011;62896;51.032;3.712;2023-09-07T09:41:56;4.9;;;3.6;;
74457;SDS011;62896;51.032;3.712;2023-09-07T09:45:16;4.9;;;3.6;;
74457;SDS011;62896;51.032;3.712;2023-09-07T09:48:36;4.9;;;3.6;;
74457;SDS011;62896;51.032;3.712;2023-09-07T09:51:56;4.9;;;3.6;;
74457;SDS011;62896;51.032;3.712;2023-09-07T09:55:16;4.6;;;3.4;;
74457;SDS011;62896;51.032;3.712;2023-09-07T09:58:36;4.6;;;3.4;;
74457;SDS011;62896;51.032;3.712;2023-09-07T10:01:56;4.6;;;3.4;;
74457;SDS011;62896;51.032;3.712;2023-09-07T10:05:16;4.6;;;3.4;;
74457;SDS011;62896;51.032;3.712;2023-09-07T10:08:36;4.6;;;3.4;;
74457;SDS011;62896;51.032;3.712;2023-09-07T10:11:57;4.6;;;3.4;;
74457;SDS011;62896;51.032;3.712;2023-09-07T10:15:19;4.6;;;3.4;;
74457;SDS011;62896;51.032;3.712;2023-09-07T10:18:36;4.6;;;3.4;;
74457;SDS011;62896;51.032;3.712;2023-09-07T10:21:56;5.3;;;3.9;;
74457;SDS011;62896;51.032;3.712;2023-09-07T10:25:17;5.3;;;3.9;;
74457;SDS011;62896;51.032;3.712;2023-09-07T10:28:36;5.3;;;3.9;;
74457;SDS011;62896;51.032;3.712;2023-09-07T10:31:56;5.3;;;3.9;;
74457;SDS011;62896;51.032;3.712;2023-09-07T10:35:16;5.3;;;3.9;;
74457;SDS011;62896;51.032;3.712;2023-09-07T10:38:36;5.3;;;3.9;;
74457;SDS011;62896;51.032;3.712;2023-09-07T10:41:56;5.3;;;3.9;;
74457;SDS011;62896;51.032;3.712;2023-09-07T10:45:16;5.9;;;3.6;;
74457;SDS011;62896;51.032;3.712;2023-09-07T10:48:36;5.9;;;3.6;;
74457;SDS011;62896;51.032;3.712;2023-09-07T10:51:56;5.9;;;3.6;;
74457;SDS011;62896;51.032;3.712;2023-09-07T10:55:16;5.9;;;3.6;;
74457;SDS011;62896;51.032;3.712;2023-09-07T10:58:36;5.9;;;3.6;;
74457;SDS011;62896;51.032;3.712;2023-09-07T11:01:56;5.9;;;3.6;;
74457;SDS011;62896;51.032;3.712;2023-09-07T11:05:16;5.9;;;3.6;;
74457;SDS011;62896;51.032;3.712;2023-09-07T11:08:36;5.9;;;3.6;;
74457;SDS011;62896;51.032;3.712;2023-09-07T11:11:56;4.7;;;3.4;;
74457;SDS011;62896;51.032;3.712;2023-09-07T11:15:16;4.7;;;3.4;;
74457;SDS011;62896;51.032;3.712;2023-09-07T11:18:36;4.7;;;3.4;;
74457;SDS011;62896;51.032;3.712;2023-09-07T11:21:56;4.7;;;3.4;;
74457;SDS011;62896;51.032;3.712;2023-09-07T11:25:16;4.7;;;3.4;;
74457;SDS011;62896;51.032;3.712;2023-09-07T11:28:37;4.7;;;3.4;;
74457;SDS011;62896;51.032;3.712;2023-09-07T11:32:04;4.7;;;3.4;;
74457;SDS011;62896;51.032;3.712;2023-09-07T11:35:16;5.3;;;3.4;;
74457;SDS011;62896;51.032;3.712;2023-09-07T11:38:36;5.3;;;3.4;;
74457;SDS011;62896;51.032;3.712;2023-09-07T11:41:56;5.3;;;3.4;;
74457;SDS011;62896;51.032;3.712;2023-09-07T11:45:16;5.3;;;3.4;;
74457;SDS011;62896;51.032;3.712;2023-09-07T11:48:36;5.3;;;3.4;;
74457;SDS011;62896;51.032;3.712;2023-09-07T11:51:56;5.3;;;3.4;;
74457;SDS011;62896;51.032;3.712;2023-09-07T11:55:16;5.3;;;3.4;;
74457;SDS011;62896;51.032;3.712;2023-09-07T11:58:36;5.3;;;3.4;;
74457;SDS011;62896;51.032;3.712;2023-09-07T12:01:56;6.8;;;3.6;;
74457;SDS011;62896;51.032;3.712;2023-09-07T12:05:16;6.8;;;3.6;;
74457;SDS011;62896;51.032;3.712;2023-09-07T12:08:36;6.8;;;3.6;;
74457;SDS011;62896;51.032;3.712;2023-09-07T12:11:56;6.8;;;3.6;;
74457;SDS011;62896;51.032;3.712;2023-09-07T12:15:16;6.8;;;3.6;;
74457;SDS011;62896;51.032;3.712;2023-09-07T12:18:36;6.8;;;3.6;;
74457;SDS011;62896;51.032;3.712;2023-09-07T12:21:56;6.8;;;3.6;;
74457;SDS011;62896;51.032;3.712;2023-09-07T12:25:16;7.7;;;3.4;;
74457;SDS011;62896;51.032;3.712;2023-09-07T12:28:36;7.7;;;3.4;;
74457;SDS011;62896;51.032;3.712;2023-09-07T12:31:56;7.7;;;3.4;;
74457;SDS011;62896;51.032;3.712;2023-09-07T12:35:16;7.7;;;3.4;;
74457;SDS011;62896;51.032;3.712;2023-09-07T12:38:36;7.7;;;3.4;;
74457;SDS011;62896;51.032;3.712;2023-09-07T12:41:56;7.7;;;3.4;;
74457;SDS011;62896;51.032;3.712;2023-09-07T12:45:16;7.7;;;3.4;;
74457;SDS011;62896;51.032;3.712;2023-09-07T12:48:36;7.7;;;3.4;;
74457;SDS011;62896;51.032;3.712;2023-09-07T12:51:56;5.3;;;3.5;;
74457;SDS011;62896;51.032;3.712;2023-09-07T12:55:16;5.3;;;3.5;;
74457;SDS011;62896;51.032;3.712;2023-09-07T12:58:36;5.3;;;3.5;;
74457;SDS011;62896;51.032;3.712;2023-09-07T13:01:56;5.3;;;3.5;;
74457;SDS011;62896;51.032;3.712;2023-09-07T13:05:16;5.3;;;3.5;;
74457;SDS011;62896;51.032;3.712;2023-09-07T13:08:36;5.3;;;3.5;;
74457;SDS011;62896;51.032;3.712;2023-09-07T13:11:56;5.3;;;3.5;;
74457;SDS011;62896;51.032;3.712;2023-09-07T13:15:16;7.4;;;3.6;;
74457;SDS011;62896;51.032;3.712;2023-09-07T13:18:36;7.4;;;3.6;;
74457;SDS011;62896;51.032;3.712;2023-09-07T13:21:56;7.4;;;3.6;;
74457;SDS011;62896;51.032;3.712;2023-09-07T13:25:16;7.4;;;3.6;;
74457;SDS011;62896;51.032;3.712;2023-09-07T13:28:36;7.4;;;3.6;;
74457;SDS011;62896;51.032;3.712;2023-09-07T13:31:56;7.4;;;3.6;;
74457;SDS011;62896;51.032;3.712;2023-09-07T13:35:16;7.4;;;3.6;;
74457;SDS011;62896;51.032;3.712;2023-09-07T13:38:36;7.4;;;3.6;;
74457;SDS011;62896;51.032;3.712;2023-09-07T13:41:56;4.2;;;3.4;;
74457;SDS011;62896;51.032;3.712;2023-09-07T13:45:16;4.2;;;3.4;;
74457;SDS011;62896;51.032;3.712;2023-09-07T13:48:36;4.2;;;3.4;;
74457;SDS011;62896;51.032;3.712;2023-09-07T13:51:56;4.2;;;3.4;;
74457;SDS011;62896;51.032;3.712;2023-09-07T13:55:16;4.2;;;3.4;;
74457;SDS011;62896;51.032;3.712;2023-09-07T13:58:36;4.2;;;3.4;;
74457;SDS011;62896;51.032;3.712;2023-09-07T14:01:56;4.2;;;3.4;;
74457;SDS011;62896;51.032;3.712;2023-09-07T14:05:16;5.1;;;3.5;;
74457;SDS011;62896;51.032;3.712;2023-09-07T14:08:36;5.1;;;3.5;;
74457;SDS011;62896;51.032;3.712;2023-09-07T14:11:56;5.1;;;3.5;;
74457;SDS011;62896;51.032;3.712;2023-09-07T14:15:16;5.1;;;3.5;;
74457;SDS011;62896;51.032;3.712;2023-09-07T14:18:36;5.1;;;3.5;;
74457;SDS011;62896;51.032;3.712;2023-09-07T14:21:56;5.1;;;3.5;;
74457;SDS011;62896;51.032;3.712;2023-09-07T14:25:16;5.1;;;3.5;;
74457;SDS011;62896;51.032;3.712;2023-09-07T14:28:36;5.1;;;3.5;;
74457;SDS011;62896;51.032;3.712;2023-09-07T14:31:56;5.1;;;3.2;;
74457;SDS011;62896;51.032;3.712;2023-09-07T14:35:16;5.1;;;3.2;;
74457;SDS011;62896;51.032;3.712;2023-09-07T14:38:36;5.1;;;3.2;;
74457;SDS011;62896;51.032;3.712;2023-09-07T14:41:56;5.1;;;3.2;;
74457;SDS011;62896;51.032;3.712;2023-09-07T14:45:16;5.1;;;3.2;;
74457;SDS011;62896;51.032;3.712;2023-09-07T14:48:36;5.1;;;3.2;;
74457;SDS011;62896;51.032;3.712;2023-09-07T14:51:56;5.1;;;3.2;;
74457;SDS011;62896;51.032;3.712;2023-09-07T14:55:16;4.7;;;3.2;;
74457;SDS011;62896;51.032;3.712;2023-09-07T14:58:36;4.7;;;3.2;;
74457;SDS011;62896;51.032;3.712;2023-09-07T15:01:56;4.7;;;3.2;;
74457;SDS011;62896;51.032;3.712;2023-09-07T15:05:16;4.7;;;3.2;;
74457;SDS011;62896;51.032;3.712;2023-09-07T15:08:36;4.7;;;3.2;;
74457;SDS011;62896;51.032;3.712;2023-09-07T15:11:56;4.7;;;3.2;;
74457;SDS011;62896;51.032;3.712;2023-09-07T15:15:16;4.7;;;3.2;;
74457;SDS011;62896;51.032;3.712;2023-09-07T15:18:36;4.7;;;3.2;;
74457;SDS011;62896;51.032;3.712;2023-09-07T15:21:56;6.7;;;3.4;;
74457;SDS011;62896;51.032;3.712;2023-09-07T15:25:16;6.7;;;3.4;;
74457;SDS011;62896;51.032;3.712;2023-09-07T15:28:37;6.7;;;3.4;;
74457;SDS011;62896;51.032;3.712;2023-09-07T15:31:56;6.7;;;3.4;;
74457;SDS011;62896;51.032;3.712;2023-09-07T15:35:16;6.7;;;3.4;;
74457;SDS011;62896;51.032;3.712;2023-09-07T15:38:36;6.7;;;3.4;;
74457;SDS011;62896;51.032;3.712;2023-09-07T15:41:56;6.7;;;3.4;;
74457;SDS011;62896;51.032;3.712;2023-09-07T15:45:16;3.8;;;2.6;;
74457;SDS011;62896;51.032;3.712;2023-09-07T15:48:36;3.8;;;2.6;;
74457;SDS011;62896;51.032;3.712;2023-09-07T15:51:56;3.8;;;2.6;;
74457;SDS011;62896;51.032;3.712;2023-09-07T15:55:16;3.8;;;2.6;;
74457;SDS011;62896;51.032;3.712;2023-09-07T15:58:36;3.8;;;2.6;;
74457;SDS011;62896;51.032;3.712;2023-09-07T16:01:56;3.8;;;2.6;;
74457;SDS011;62896;51.032;3.712;2023-09-07T16:05:16;3.8;;;2.6;;
74457;SDS011;62896;51.032;3.712;2023-09-07T16:08:36;3.8;;;2.6;;
74457;SDS011;62896;51.032;3.712;2023-09-07T16:11:56;4.4;;;2.8;;
74457;SDS011;62896;51.032;3.712;2023-09-07T16:15:16;4.4;;;2.8;;
74457;SDS011;62896;51.032;3.712;2023-09-07T16:18:36;4.4;;;2.8;;
74457;SDS011;62896;51.032;3.712;2023-09-07T16:21:56;4.4;;;2.8;;
74457;SDS011;62896;51.032;3.712;2023-09-07T16:25:16;4.4;;;2.8;;
74457;SDS011;62896;51.032;3.712;2023-09-07T16:28:36;4.4;;;2.8;;
74457;SDS011;62896;51.032;3.712;2023-09-07T16:31:56;4.4;;;2.8;;
74457;SDS011;62896;51.032;3.712;2023-09-07T16:35:17;5.9;;;2.7;;
74457;SDS011;62896;51.032;3.712;2023-09-07T16:38:36;5.9;;;2.7;;
74457;SDS011;62896;51.032;3.712;2023-09-07T16:41:56;5.9;;;2.7;;
74457;SDS011;62896;51.032;3.712;2023-09-07T16:45:16;5.9;;;2.7;;
74457;SDS011;62896;51.032;3.712;2023-09-07T16:48:36;5.9;;;2.7;;
74457;SDS011;62896;51.032;3.712;2023-09-07T16:51:56;5.9;;;2.7;;
74457;SDS011;62896;51.032;3.712;2023-09-07T16:55:16;5.9;;;2.7;;
74457;SDS011;62896;51.032;3.712;2023-09-07T16:58:36;5.9;;;2.7;;
74457;SDS011;62896;51.032;3.712;2023-09-07T17:01:56;3.4;;;2.5;;
74457;SDS011;62896;51.032;3.712;2023-09-07T17:05:16;3.4;;;2.5;;
74457;SDS011;62896;51.032;3.712;2023-09-07T17:08:36;3.4;;;2.5;;
74457;SDS011;62896;51.032;3.712;2023-09-07T17:11:56;3.4;;;2.5;;
74457;SDS011;62896;51.032;3.712;2023-09-07T17:15:16;3.4;;;2.5;;
74457;SDS011;62896;51.032;3.712;2023-09-07T17:18:36;3.4;;;2.5;;
74457;SDS011;62896;51.032;3.712;2023-09-07T17:21:56;3.4;;;2.5;;
74457;SDS011;62896;51.032;3.712;2023-09-07T17:25:16;5.3;;;2.7;;
74457;SDS011;62896;51.032;3.712;2023-09-07T17:28:36;5.3;;;2.7;;
74457;SDS011;62896;51.032;3.712;2023-09-07T17:31:56;5.3;;;2.7;;
74457;SDS011;62896;51.032;3.712;2023-09-07T17:35:16;5.3;;;2.7;;
74457;SDS011;62896;51.032;3.712;2023-09-07T17:38:36;5.3;;;2.7;;
74457;SDS011;62896;51.032;3.712;2023-09-07T17:41:56;5.3;;;2.7;;
74457;SDS011;62896;51.032;3.712;2023-09-07T17:45:16;5.3;;;2.7;;
74457;SDS011;62896;51.032;3.712;2023-09-07T17:48:36;5.3;;;2.7;;
74457;SDS011;62896;51.032;3.712;2023-09-07T17:51:56;5.8;;;3.2;;
74457;SDS011;62896;51.032;3.712;2023-09-07T17:55:16;5.8;;;3.2;;
74457;SDS011;62896;51.032;3.712;2023-09-07T17:58:36;5.8;;;3.2;;
74457;SDS011;62896;51.032;3.712;2023-09-07T18:01:56;5.8;;;3.2;;
74457;SDS011;62896;51.032;3.712;2023-09-07T18:05:16;5.8;;;3.2;;
74457;SDS011;62896;51.032;3.712;2023-09-07T18:08:36;5.8;;;3.2;;
74457;SDS011;62896;51.032;3.712;2023-09-07T18:11:56;5.8;;;3.2;;
74457;SDS011;62896;51.032;3.712;2023-09-07T18:15:16;7;;;3.5;;
74457;SDS011;62896;51.032;3.712;2023-09-07T18:18:36;7;;;3.5;;
74457;SDS011;62896;51.032;3.712;2023-09-07T18:21:56;7;;;3.5;;
74457;SDS011;62896;51.032;3.712;2023-09-07T18:25:16;7;;;3.5;;
74457;SDS011;62896;51.032;3.712;2023-09-07T18:28:36;7;;;3.5;;
74457;SDS011;62896;51.032;3.712;2023-09-07T18:31:56;7;;;3.5;;
74457;SDS011;62896;51.032;3.712;2023-09-07T18:35:16;7;;;3.5;;
74457;SDS011;62896;51.032;3.712;2023-09-07T18:38:36;7;;;3.5;;
74457;SDS011;62896;51.032;3.712;2023-09-07T18:41:56;5;;;3.7;;
74457;SDS011;62896;51.032;3.712;2023-09-07T18:45:16;5;;;3.7;;
74457;SDS011;62896;51.032;3.712;2023-09-07T18:48:36;5;;;3.7;;
74457;SDS011;62896;51.032;3.712;2023-09-07T18:51:56;5;;;3.7;;
74457;SDS011;62896;51.032;3.712;2023-09-07T18:55:16;5;;;3.7;;
74457;SDS011;62896;51.032;3.712;2023-09-07T18:58:36;5;;;3.7;;
74457;SDS011;62896;51.032;3.712;2023-09-07T19:01:56;5;;;3.7;;
74457;SDS011;62896;51.032;3.712;2023-09-07T19:05:16;10.8;;;3.9;;
74457;SDS011;62896;51.032;3.712;2023-09-07T19:08:36;10.8;;;3.9;;
74457;SDS011;62896;51.032;3.712;2023-09-07T19:11:56;10.8;;;3.9;;
74457;SDS011;62896;51.032;3.712;2023-09-07T19:15:16;10.8;;;3.9;;
74457;SDS011;62896;51.032;3.712;2023-09-07T19:18:36;10.8;;;3.9;;
74457;SDS011;62896;51.032;3.712;2023-09-07T19:21:56;10.8;;;3.9;;
74457;SDS011;62896;51.032;3.712;2023-09-07T19:25:16;10.8;;;3.9;;
74457;SDS011;62896;51.032;3.712;2023-09-07T19:28:36;10.8;;;3.9;;
74457;SDS011;62896;51.032;3.712;2023-09-07T19:31:56;12.8;;;6.4;;
74457;SDS011;62896;51.032;3.712;2023-09-07T19:35:16;12.8;;;6.4;;
74457;SDS011;62896;51.032;3.712;2023-09-07T19:38:37;12.8;;;6.4;;
74457;SDS011;62896;51.032;3.712;2023-09-07T19:41:56;12.8;;;6.4;;
74457;SDS011;62896;51.032;3.712;2023-09-07T19:45:16;12.8;;;6.4;;
74457;SDS011;62896;51.032;3.712;2023-09-07T19:48:36;12.8;;;6.4;;
74457;SDS011;62896;51.032;3.712;2023-09-07T19:51:56;12.8;;;6.4;;
74457;SDS011;62896;51.032;3.712;2023-09-07T19:55:16;8.5;;;6;;
74457;SDS011;62896;51.032;3.712;2023-09-07T19:58:36;8.5;;;6;;
74457;SDS011;62896;51.032;3.712;2023-09-07T20:01:56;8.5;;;6;;
74457;SDS011;62896;51.032;3.712;2023-09-07T20:05:16;8.5;;;6;;
74457;SDS011;62896;51.032;3.712;2023-09-07T20:08:36;8.5;;;6;;
74457;SDS011;62896;51.032;3.712;2023-09-07T20:11:58;8.5;;;6;;
74457;SDS011;62896;51.032;3.712;2023-09-07T20:15:16;8.5;;;6;;
74457;SDS011;62896;51.032;3.712;2023-09-07T20:18:36;8.5;;;6;;
74457;SDS011;62896;51.032;3.712;2023-09-07T20:21:56;7.9;;;6.3;;
74457;SDS011;62896;51.032;3.712;2023-09-07T20:25:16;7.9;;;6.3;;
74457;SDS011;62896;51.032;3.712;2023-09-07T20:28:36;7.9;;;6.3;;
74457;SDS011;62896;51.032;3.712;2023-09-07T20:31:56;7.9;;;6.3;;
74457;SDS011;62896;51.032;3.712;2023-09-07T20:35:16;7.9;;;6.3;;
74457;SDS011;62896;51.032;3.712;2023-09-07T20:38:36;7.9;;;6.3;;
74457;SDS011;62896;51.032;3.712;2023-09-07T20:41:56;7.9;;;6.3;;